Time;durP1;ratioP1;P1;durP2;ratioP2;P2;SDS_P1;SDS_P2;PMS_P1;PMS_P2;Temp;Humidity;BMP_temperature;BMP_pressure;BME280_temperature;BME280_humidity;BME280_pressure;Samples;Min_cycle;Max_cycle;Signal;HPM_P1;HPM_P2
2021/05/31 00:02:08;;;;;;;4.35;2.63;;;15.60;49.70;;;;;;5002908;28;20140;-74
2021/05/31 00:04:35;;;;;;;5.22;2.95;;;15.80;49.60;;;;;;5001233;28;20141;-73
2021/05/31 00:07:18;;;;;;;5.40;2.78;;;15.70;49.60;;;;;;5003303;28;20104;-74
2021/05/31 00:09:46;;;;;;;5.80;3.00;;;15.80;49.70;;;;;;5003113;28;20485;-74
2021/05/31 00:12:15;;;;;;;5.75;2.42;;;15.70;49.90;;;;;;5004802;28;20137;-74
2021/05/31 00:14:44;;;;;;;6.15;2.70;;;15.80;49.70;;;;;;5003875;28;20045;-74
2021/05/31 00:17:11;;;;;;;4.20;2.53;;;15.80;49.60;;;;;;5003597;28;20097;-74
2021/05/31 00:19:38;;;;;;;4.57;2.55;;;15.70;49.80;;;;;;5004965;28;20073;-73
2021/05/31 00:22:05;;;;;;;3.45;2.50;;;15.60;49.90;;;;;;5004957;28;20129;-72
2021/05/31 00:24:32;;;;;;;12.15;2.97;;;15.70;49.80;;;;;;5000439;28;20065;-73
2021/05/31 00:26:59;;;;;;;5.85;2.25;;;15.60;49.50;;;;;;5001825;28;20088;-73
2021/05/31 00:29:26;;;;;;;6.75;2.92;;;15.50;50.00;;;;;;5002590;28;20050;-73
2021/05/31 00:31:55;;;;;;;3.72;2.50;;;15.40;50.00;;;;;;5001996;28;20132;-73
2021/05/31 00:34:22;;;;;;;3.65;2.53;;;15.40;50.00;;;;;;5003405;28;20081;-73
2021/05/31 00:36:50;;;;;;;6.50;2.72;;;15.30;50.30;;;;;;5002430;28;20077;-73
2021/05/31 00:39:20;;;;;;;3.35;2.45;;;15.30;50.20;;;;;;5003550;28;20271;-73
2021/05/31 00:41:49;;;;;;;4.85;2.58;;;15.10;50.50;;;;;;5001260;28;20149;-73
2021/05/31 00:44:18;;;;;;;4.50;2.60;;;15.30;50.30;;;;;;5002395;28;20046;-74
2021/05/31 00:46:46;;;;;;;7.47;2.40;;;15.20;50.60;;;;;;5002436;28;20061;-74
2021/05/31 00:49:19;;;;;;;5.78;2.40;;;15.10;50.40;;;;;;5002957;28;20149;-73
2021/05/31 00:51:47;;;;;;;2.85;2.20;;;15.00;50.60;;;;;;5004996;28;20422;-76
2021/05/31 00:54:14;;;;;;;5.50;2.50;;;15.10;50.60;;;;;;5002049;28;20541;-72
2021/05/31 00:56:43;;;;;;;3.97;2.45;;;15.10;50.30;;;;;;5004968;28;20528;-72
2021/05/31 00:59:11;;;;;;;4.53;2.40;;;15.20;50.30;;;;;;5002330;28;20068;-73
2021/05/31 01:01:38;;;;;;;5.03;2.25;;;15.20;50.20;;;;;;5002197;28;20486;-72
2021/05/31 01:04:06;;;;;;;5.38;2.63;;;15.00;50.90;;;;;;5027629;28;20100;-72
2021/05/31 01:06:40;;;;;;;7.50;2.70;;;14.80;50.70;;;;;;5020163;28;20132;-72
2021/05/31 01:09:09;;;;;;;5.57;2.80;;;14.80;50.70;;;;;;5005954;28;20104;-72
2021/05/31 01:12:04;;;;;;;3.42;2.58;;;14.70;50.80;;;;;;5006616;28;20046;-73
2021/05/31 01:14:45;;;;;;;3.10;2.25;;;14.60;51.10;;;;;;5002806;28;20058;-72
2021/05/31 01:17:21;;;;;;;4.15;2.70;;;14.60;51.20;;;;;;5008794;28;20492;-72
2021/05/31 01:19:51;;;;;;;3.80;2.63;;;14.70;50.90;;;;;;5005493;28;20405;-72
2021/05/31 01:22:25;;;;;;;5.55;2.53;;;14.70;50.70;;;;;;5023953;28;20138;-72
2021/05/31 01:25:01;;;;;;;5.70;2.63;;;14.80;50.60;;;;;;5003992;28;20129;-72
2021/05/31 01:27:41;;;;;;;5.30;2.47;;;14.90;50.20;;;;;;5007814;28;20046;-72
2021/05/31 01:30:12;;;;;;;3.50;2.53;;;14.90;50.00;;;;;;5008225;28;20065;-72
2021/05/31 01:32:45;;;;;;;2.95;2.35;;;14.90;50.00;;;;;;5008742;28;20133;-72
2021/05/31 01:35:16;;;;;;;5.20;2.53;;;15.00;50.00;;;;;;5008555;28;20077;-72
2021/05/31 01:37:44;;;;;;;4.22;2.28;;;14.90;50.00;;;;;;5022456;28;20088;-71
2021/05/31 01:40:17;;;;;;;4.10;2.40;;;14.80;50.10;;;;;;5006257;28;20054;-72
2021/05/31 01:42:44;;;;;;;3.80;2.17;;;14.70;50.20;;;;;;5005811;28;20117;-72
2021/05/31 01:45:12;;;;;;;6.10;2.53;;;14.80;50.10;;;;;;5007858;28;20042;-71
2021/05/31 01:47:42;;;;;;;4.78;2.45;;;14.90;49.80;;;;;;5006705;28;20049;-71
2021/05/31 01:50:11;;;;;;;5.90;2.88;;;14.70;50.10;;;;;;5004091;28;20096;-71
2021/05/31 01:52:41;;;;;;;5.03;2.70;;;14.60;50.40;;;;;;5024724;28;20037;-71
2021/05/31 01:55:09;;;;;;;9.10;2.90;;;14.60;50.40;;;;;;5007337;28;20148;-71
2021/05/31 01:57:37;;;;;;;5.47;2.40;;;14.60;50.40;;;;;;5009487;28;20045;-71
2021/05/31 02:00:06;;;;;;;4.20;2.47;;;14.60;50.50;;;;;;5008571;28;20093;-71
2021/05/31 02:02:47;;;;;;;3.72;2.20;;;14.60;50.50;;;;;;5007580;28;20465;-71
2021/05/31 02:05:15;;;;;;;3.25;2.13;;;14.70;50.10;;;;;;5006837;28;20473;-71
2021/05/31 02:07:42;;;;;;;5.03;2.40;;;14.60;50.30;;;;;;5006486;28;20534;-70
2021/05/31 02:10:12;;;;;;;3.13;2.35;;;14.60;50.20;;;;;;5008063;28;20100;-79
2021/05/31 02:12:54;;;;;;;3.25;2.20;;;14.30;50.50;;;;;;5002935;28;20073;-80
2021/05/31 02:15:55;;;;;;;3.65;2.35;;;14.50;50.60;;;;;;5002856;28;20377;-79
2021/05/31 02:18:42;;;;;;;5.05;2.53;;;14.40;50.50;;;;;;5004326;28;20550;-80
2021/05/31 02:21:12;;;;;;;3.50;2.20;;;14.20;50.80;;;;;;5009311;28;20138;-79
2021/05/31 02:23:41;;;;;;;4.13;2.58;;;14.50;50.80;;;;;;5006209;28;20074;-78
2021/05/31 02:26:16;;;;;;;2.53;2.30;;;14.60;50.50;;;;;;5020145;28;20130;-74
2021/05/31 02:28:46;;;;;;;5.00;2.60;;;14.50;50.50;;;;;;5008682;28;20084;-80
2021/05/31 02:31:15;;;;;;;2.88;2.25;;;14.60;50.30;;;;;;5006297;28;20046;-79
2021/05/31 02:33:45;;;;;;;4.35;2.65;;;14.60;50.40;;;;;;5008695;28;20050;-79
2021/05/31 02:36:12;;;;;;;3.22;2.40;;;14.50;50.40;;;;;;5009341;28;20138;-79
2021/05/31 02:38:41;;;;;;;6.72;2.47;;;14.40;50.70;;;;;;5006586;28;20458;-79
2021/05/31 02:41:09;;;;;;;6.63;2.47;;;14.30;50.80;;;;;;5008264;28;20129;-78
2021/05/31 02:43:36;;;;;;;3.53;2.47;;;14.00;51.30;;;;;;5008086;28;20073;-78
2021/05/31 02:46:03;;;;;;;3.25;2.25;;;14.10;51.40;;;;;;5009103;28;20133;-79
2021/05/31 02:48:30;;;;;;;3.63;2.28;;;14.00;51.30;;;;;;5002647;28;20129;-79
2021/05/31 02:50:57;;;;;;;7.38;2.75;;;14.00;51.60;;;;;;5009790;28;20124;-79
2021/05/31 02:53:25;;;;;;;4.35;2.60;;;13.80;51.80;;;;;;5001458;28;20057;-79
2021/05/31 02:55:52;;;;;;;3.80;2.50;;;13.60;52.30;;;;;;5005202;28;20459;-79
2021/05/31 02:58:20;;;;;;;4.90;2.47;;;13.60;52.30;;;;;;5010627;28;20077;-79
2021/05/31 03:00:47;;;;;;;8.40;2.70;;;13.60;52.30;;;;;;5007824;28;20422;-79
2021/05/31 03:03:14;;;;;;;3.13;2.30;;;13.60;52.50;;;;;;5008073;28;20053;-79
2021/05/31 03:05:41;;;;;;;4.40;2.90;;;13.60;52.50;;;;;;5013628;28;20042;-80
2021/05/31 03:08:08;;;;;;;5.32;2.30;;;13.60;53.00;;;;;;5009346;28;20046;-79
2021/05/31 03:10:35;;;;;;;3.85;2.40;;;13.60;52.50;;;;;;5010529;28;20644;-79
2021/05/31 03:13:02;;;;;;;6.20;2.55;;;13.50;52.70;;;;;;5006904;28;20073;-79
2021/05/31 03:15:29;;;;;;;4.35;2.67;;;13.30;52.70;;;;;;5038881;28;20132;-79
2021/05/31 03:17:57;;;;;;;3.63;2.30;;;13.30;53.20;;;;;;5007516;28;20065;-79
2021/05/31 03:20:26;;;;;;;5.43;2.33;;;13.50;53.00;;;;;;5013229;28;20096;-79
2021/05/31 03:22:54;;;;;;;8.82;2.97;;;13.40;52.60;;;;;;5011349;28;20489;-79
2021/05/31 03:25:21;;;;;;;4.53;2.50;;;13.40;52.50;;;;;;5006524;28;20125;-77
2021/05/31 03:27:48;;;;;;;3.42;2.20;;;13.40;52.60;;;;;;5010055;28;20074;-76
2021/05/31 03:30:17;;;;;;;6.30;2.40;;;13.60;52.30;;;;;;5010282;28;20053;-80
2021/05/31 03:32:44;;;;;;;5.82;2.70;;;13.70;52.00;;;;;;5011628;28;20125;-79
2021/05/31 03:35:13;;;;;;;3.35;2.30;;;13.70;52.00;;;;;;5011176;28;20054;-78
2021/05/31 03:37:40;;;;;;;5.18;2.50;;;13.70;51.80;;;;;;5012196;28;20090;-79
2021/05/31 03:40:09;;;;;;;4.13;2.42;;;13.60;51.80;;;;;;5009652;28;20057;-80
2021/05/31 03:42:36;;;;;;;5.65;2.33;;;13.50;52.20;;;;;;5009373;28;20085;-81
2021/05/31 03:45:05;;;;;;;4.57;2.75;;;13.40;52.40;;;;;;5011530;28;20073;-80
2021/05/31 03:47:32;;;;;;;4.65;2.40;;;13.40;52.40;;;;;;5009853;28;20048;-79
2021/05/31 03:49:58;;;;;;;4.90;2.60;;;13.30;52.50;;;;;;5012499;28;20092;-80
2021/05/31 03:52:25;;;;;;;4.07;2.53;;;13.30;52.60;;;;;;5012379;28;20053;-80
2021/05/31 03:54:52;;;;;;;5.70;2.70;;;13.50;52.80;;;;;;5010268;28;20145;-80
2021/05/31 03:57:19;;;;;;;2.67;2.17;;;13.40;52.70;;;;;;5011284;28;20386;-79
2021/05/31 03:59:48;;;;;;;3.45;2.47;;;13.50;52.60;;;;;;5008455;28;20138;-79
2021/05/31 04:02:15;;;;;;;7.97;2.47;;;13.40;52.40;;;;;;5009514;28;20124;-80
2021/05/31 04:04:44;;;;;;;6.00;2.63;;;13.50;52.30;;;;;;5013170;28;20156;-78
2021/05/31 04:12:30;;;;;;;4.75;2.33;;;13.80;51.50;;;;;;5007827;28;20220;-80
2021/05/31 04:14:57;;;;;;;4.50;2.08;;;13.80;51.30;;;;;;5008338;28;20049;-80
2021/05/31 04:17:24;;;;;;;3.92;2.55;;;13.80;51.40;;;;;;5003287;28;20120;-79
2021/05/31 04:19:51;;;;;;;4.57;2.42;;;13.90;51.30;;;;;;5011616;28;20100;-79
2021/05/31 04:22:18;;;;;;;3.15;2.20;;;13.70;51.40;;;;;;5010250;28;20807;-80
2021/05/31 04:24:44;;;;;;;3.38;2.60;;;13.60;51.40;;;;;;5004765;28;20046;-80
2021/05/31 04:27:11;;;;;;;6.55;2.40;;;13.70;51.30;;;;;;5010930;28;20096;-81
2021/05/31 04:29:38;;;;;;;4.63;2.40;;;13.60;51.40;;;;;;5010305;28;20078;-80
2021/05/31 04:32:05;;;;;;;4.43;2.50;;;13.60;51.60;;;;;;5006808;28;20125;-80
2021/05/31 04:34:32;;;;;;;3.65;2.47;;;13.60;51.60;;;;;;5008433;28;20132;-79
2021/05/31 04:36:59;;;;;;;3.80;2.45;;;13.60;51.70;;;;;;5008482;28;20049;-80
2021/05/31 04:39:26;;;;;;;4.88;2.42;;;13.60;51.80;;;;;;5010955;28;20057;-80
2021/05/31 04:41:53;;;;;;;4.40;2.80;;;13.60;52.30;;;;;;5010020;28;20057;-79
2021/05/31 04:44:20;;;;;;;4.28;2.45;;;13.80;51.70;;;;;;5011742;28;20128;-80
2021/05/31 04:46:47;;;;;;;9.13;2.63;;;14.00;51.50;;;;;;5006171;28;20077;-79
2021/05/31 04:49:13;;;;;;;5.25;2.58;;;14.10;51.00;;;;;;5009137;28;20101;-80
2021/05/31 04:51:40;;;;;;;4.80;2.17;;;14.40;50.50;;;;;;5009842;28;20128;-80
2021/05/31 04:54:07;;;;;;;5.35;2.42;;;14.90;49.70;;;;;;5002277;28;20425;-80
2021/05/31 04:56:34;;;;;;;4.65;2.35;;;15.30;49.10;;;;;;5010602;28;20056;-80
2021/05/31 04:59:01;;;;;;;4.45;2.10;;;15.60;48.40;;;;;;5009166;28;20064;-81
2021/05/31 05:01:28;;;;;;;3.30;2.40;;;15.90;48.00;;;;;;5008057;28;20501;-80
2021/05/31 05:03:55;;;;;;;3.83;1.98;;;16.10;47.70;;;;;;5011176;28;20077;-79
2021/05/31 05:06:22;;;;;;;7.05;2.40;;;16.60;47.00;;;;;;5009283;28;20520;-79
2021/05/31 05:08:53;;;;;;;4.43;2.65;;;16.90;46.50;;;;;;5004638;28;20575;-74
2021/05/31 05:11:22;;;;;;;2.88;2.15;;;16.90;46.20;;;;;;5008870;28;20561;-79
2021/05/31 05:13:52;;;;;;;3.50;2.30;;;17.70;45.70;;;;;;5009403;28;20077;-79
2021/05/31 05:16:19;;;;;;;3.38;2.17;;;17.70;45.20;;;;;;5006960;28;20561;-80
2021/05/31 05:18:48;;;;;;;3.42;2.10;;;18.20;44.40;;;;;;5001874;28;20507;-77
2021/05/31 05:21:17;;;;;;;4.50;2.25;;;18.90;43.30;;;;;;5006787;28;20692;-79
2021/05/31 05:23:46;;;;;;;4.53;2.15;;;19.30;42.60;;;;;;5009225;28;20501;-80
2021/05/31 05:26:15;;;;;;;2.72;1.90;;;19.30;43.20;;;;;;5010798;28;20065;-80
2021/05/31 05:28:42;;;;;;;3.15;2.20;;;19.30;42.80;;;;;;5010578;28;20141;-80
2021/05/31 05:31:10;;;;;;;3.97;2.22;;;18.20;44.00;;;;;;5007331;28;20115;-80
2021/05/31 05:33:42;;;;;;;;;;;19.60;43.90;;;;;;5008734;28;20693;-82
2021/05/31 05:36:31;;;;;;;4.32;2.10;;;17.70;43.80;;;;;;5010202;28;19921;-81
2021/05/31 05:39:48;;;;;;;3.95;1.85;;;17.40;45.60;;;;;;5000713;28;20073;-82
2021/05/31 05:45:38;;;;;;;3.13;2.13;;;16.10;47.50;;;;;;5007660;28;20132;-82
2021/05/31 05:47:42;;;;;;;5.80;1.88;;;15.80;47.90;;;;;;5002673;28;20140;-80
2021/05/31 05:50:19;;;;;;;3.13;2.00;;;15.50;48.00;;;;;;5004438;28;20488;-81
2021/05/31 05:52:47;;;;;;;6.28;2.15;;;15.60;48.30;;;;;;5025195;28;20515;-81
2021/05/31 05:55:16;;;;;;;4.70;1.90;;;15.90;48.30;;;;;;5006378;28;20523;-80
2021/05/31 05:57:43;;;;;;;6.32;2.10;;;16.00;48.00;;;;;;5008402;28;20100;-73
2021/05/31 06:00:14;;;;;;;4.63;2.10;;;15.90;48.10;;;;;;5004134;28;20046;-72
2021/05/31 06:02:42;;;;;;;3.67;1.92;;;15.80;47.80;;;;;;5007140;28;20132;-73
2021/05/31 06:05:09;;;;;;;4.53;2.05;;;15.90;48.10;;;;;;5009231;28;20120;-73
2021/05/31 06:07:36;;;;;;;3.53;1.90;;;16.10;47.70;;;;;;5008499;28;20046;-73
2021/05/31 06:10:04;;;;;;;2.35;1.63;;;16.10;47.70;;;;;;5006769;28;20054;-73
2021/05/31 06:12:31;;;;;;;3.50;2.05;;;16.70;47.40;;;;;;5007519;28;20112;-72
2021/05/31 06:14:58;;;;;;;4.00;2.05;;;16.60;46.60;;;;;;5004722;28;20069;-73
2021/05/31 06:17:25;;;;;;;2.33;1.70;;;16.50;46.70;;;;;;5007294;28;20054;-73
2021/05/31 06:19:52;;;;;;;3.53;1.90;;;16.70;46.60;;;;;;5003545;28;20137;-74
2021/05/31 06:22:19;;;;;;;4.60;2.13;;;16.70;46.20;;;;;;5009513;28;20463;-73
2021/05/31 06:24:46;;;;;;;3.47;2.05;;;16.50;46.50;;;;;;5003039;28;20389;-74
2021/05/31 06:27:13;;;;;;;3.28;1.80;;;16.60;46.80;;;;;;5007970;28;20054;-74
2021/05/31 06:29:40;;;;;;;2.97;1.75;;;16.80;46.00;;;;;;5009717;28;20096;-73
2021/05/31 06:32:07;;;;;;;6.57;1.70;;;16.70;46.20;;;;;;5009389;28;20084;-74
2021/05/31 06:34:34;;;;;;;5.85;1.90;;;16.70;46.00;;;;;;5013998;28;20089;-73
2021/05/31 06:37:00;;;;;;;3.47;1.85;;;17.90;45.80;;;;;;5014880;28;20569;-74
2021/05/31 06:39:27;;;;;;;1.67;1.45;;;19.10;43.10;;;;;;5013834;28;20136;-75
2021/05/31 06:41:54;;;;;;;4.45;1.70;;;18.70;42.60;;;;;;5015765;28;20042;-73
2021/05/31 06:44:21;;;;;;;3.25;1.55;;;19.30;42.80;;;;;;5016605;28;20450;-74
2021/05/31 06:46:49;;;;;;;3.05;1.60;;;20.10;42.50;;;;;;5012570;28;20136;-74
2021/05/31 06:49:16;;;;;;;4.88;1.70;;;21.00;40.50;;;;;;5013023;28;20145;-74
2021/05/31 06:51:45;;;;;;;3.40;1.70;;;20.00;40.30;;;;;;5013103;28;20148;-74
2021/05/31 06:54:12;;;;;;;2.58;1.65;;;18.90;41.30;;;;;;5012326;28;20125;-74
2021/05/31 06:56:40;;;;;;;4.00;1.40;;;19.10;40.90;;;;;;5012652;28;20081;-74
2021/05/31 06:59:07;;;;;;;2.47;1.50;;;18.80;41.30;;;;;;5011597;28;20057;-74
2021/05/31 07:01:34;;;;;;;4.22;1.60;;;18.60;41.30;;;;;;5013015;28;20463;-74
2021/05/31 07:04:02;;;;;;;3.45;1.65;;;18.00;41.70;;;;;;5015443;28;20405;-74
2021/05/31 07:06:29;;;;;;;2.25;1.60;;;18.10;41.80;;;;;;5015330;28;20120;-74
2021/05/31 07:08:56;;;;;;;4.72;1.77;;;18.30;41.70;;;;;;5010781;28;20152;-74
2021/05/31 07:11:24;;;;;;;5.00;1.75;;;18.20;41.00;;;;;;5010248;28;20473;-74
2021/05/31 07:13:52;;;;;;;2.08;1.50;;;18.10;41.10;;;;;;5012135;28;20045;-74
2021/05/31 07:16:19;;;;;;;2.22;1.40;;;18.10;41.10;;;;;;5013480;28;20124;-75
2021/05/31 07:18:47;;;;;;;4.03;1.88;;;18.10;40.70;;;;;;5015190;28;20053;-74
2021/05/31 07:21:15;;;;;;;8.50;1.60;;;18.00;41.10;;;;;;5016398;28;20046;-74
2021/05/31 07:23:42;;;;;;;1.90;1.50;;;18.10;41.30;;;;;;5028421;28;20053;-74
2021/05/31 07:26:09;;;;;;;3.15;1.30;;;18.20;41.00;;;;;;5013586;28;20057;-75
2021/05/31 07:28:36;;;;;;;2.97;1.35;;;19.10;40.80;;;;;;5010245;28;20129;-74
2021/05/31 07:31:03;;;;;;;3.78;1.90;;;20.50;38.70;;;;;;5012328;28;20073;-74
2021/05/31 07:33:30;;;;;;;5.65;1.80;;;19.90;38.80;;;;;;5015497;28;20046;-74
2021/05/31 07:35:58;;;;;;;2.30;1.50;;;18.90;39.60;;;;;;5014862;28;20073;-73
2021/05/31 07:38:25;;;;;;;4.53;1.42;;;18.40;40.50;;;;;;5014848;28;20066;-73
2021/05/31 07:40:52;;;;;;;2.03;1.60;;;18.20;41.20;;;;;;5015483;28;20134;-73
2021/05/31 07:43:19;;;;;;;3.67;1.50;;;18.20;42.00;;;;;;5013987;28;20082;-74
2021/05/31 07:45:46;;;;;;;7.13;1.92;;;18.20;41.60;;;;;;5007663;28;20116;-80
2021/05/31 07:48:13;;;;;;;7.68;1.67;;;18.40;41.50;;;;;;5007691;28;20050;-81
2021/05/31 07:50:40;;;;;;;3.47;1.30;;;18.50;41.10;;;;;;5024099;28;20132;-84
2021/05/31 07:53:07;;;;;;;3.33;1.60;;;18.20;41.40;;;;;;5009368;28;20409;-82
2021/05/31 07:55:34;;;;;;;2.95;1.42;;;18.30;41.30;;;;;;5009782;28;20070;-82
2021/05/31 07:58:01;;;;;;;4.38;1.48;;;18.40;41.40;;;;;;5008344;28;20072;-81
2021/05/31 08:00:29;;;;;;;2.97;1.75;;;18.40;41.50;;;;;;5008952;28;20140;-81
2021/05/31 08:02:56;;;;;;;4.65;1.65;;;18.40;41.50;;;;;;5010188;28;20142;-81
2021/05/31 08:05:23;;;;;;;4.88;1.70;;;18.50;41.80;;;;;;5008470;28;20130;-79
2021/05/31 08:07:50;;;;;;;7.22;1.60;;;18.60;40.90;;;;;;5008924;28;20129;-80
2021/05/31 08:10:18;;;;;;;3.88;1.80;;;18.70;40.50;;;;;;5007289;28;20132;-81
2021/05/31 08:12:50;;;;;;;3.42;1.40;;;18.90;39.40;;;;;;5004559;28;20049;-82
2021/05/31 08:15:17;;;;;;;2.50;1.38;;;18.80;38.70;;;;;;5007814;28;20092;-82
2021/05/31 08:17:44;;;;;;;2.67;1.63;;;18.70;38.70;;;;;;5007982;28;20050;-81
2021/05/31 08:20:12;;;;;;;2.60;1.30;;;18.70;38.90;;;;;;5011526;28;20048;-81
2021/05/31 08:22:41;;;;;;;3.72;1.77;;;18.90;38.90;;;;;;5010471;28;20168;-82
2021/05/31 08:25:13;;;;;;;3.17;1.38;;;19.00;38.90;;;;;;5008426;28;20065;-82
2021/05/31 08:27:39;;;;;;;4.32;1.40;;;19.10;38.40;;;;;;5007535;28;20080;-82
2021/05/31 08:30:07;;;;;;;2.17;1.38;;;18.90;38.80;;;;;;5005432;28;20085;-83
2021/05/31 08:32:34;;;;;;;2.33;1.60;;;19.00;37.80;;;;;;5005783;28;20054;-82
2021/05/31 08:35:01;;;;;;;4.10;1.60;;;18.80;38.30;;;;;;5009040;28;20054;-83
2021/05/31 08:37:28;;;;;;;4.57;1.50;;;18.90;38.40;;;;;;5009989;28;20077;-78
2021/05/31 08:39:55;;;;;;;2.83;1.70;;;19.00;38.80;;;;;;5022034;28;20080;-83
2021/05/31 08:42:23;;;;;;;1.45;1.33;;;19.10;38.40;;;;;;5026901;28;20050;-83
2021/05/31 08:44:50;;;;;;;2.30;1.40;;;19.10;37.90;;;;;;5009515;28;20136;-80
2021/05/31 08:47:18;;;;;;;2.30;1.50;;;19.20;37.60;;;;;;5003767;28;20134;-83
2021/05/31 08:49:49;;;;;;;;;;;19.20;37.50;;;;;;5010074;28;20438;-80
2021/05/31 08:52:16;;;;;;;2.70;1.63;;;19.20;38.10;;;;;;5021205;28;20027;-81
2021/05/31 08:54:43;;;;;;;4.75;1.58;;;19.20;37.70;;;;;;5007699;28;20085;-83
2021/05/31 08:57:09;;;;;;;1.95;1.58;;;19.20;38.00;;;;;;5006810;28;20073;-82
2021/05/31 08:59:36;;;;;;;4.63;1.70;;;19.30;37.70;;;;;;5006970;28;20409;-83
2021/05/31 09:02:03;;;;;;;3.80;2.10;;;19.20;37.70;;;;;;5007642;28;20565;-82
2021/05/31 09:04:30;;;;;;;2.90;1.60;;;19.20;37.80;;;;;;5007498;28;20421;-81
2021/05/31 09:06:58;;;;;;;3.38;1.92;;;19.30;38.30;;;;;;5007421;28;20493;-82
2021/05/31 09:09:45;;;;;;;4.10;1.67;;;19.30;38.20;;;;;;5007315;28;20108;-83
2021/05/31 09:12:19;;;;;;;3.47;1.50;;;19.30;38.10;;;;;;5007847;28;20462;-83
2021/05/31 09:14:57;;;;;;;6.35;1.42;;;19.30;38.10;;;;;;5009988;28;20079;-82
2021/05/31 09:17:30;;;;;;;5.32;1.58;;;19.20;37.90;;;;;;5008072;28;20173;-83
2021/05/31 09:19:57;;;;;;;2.15;1.45;;;19.40;38.20;;;;;;5040375;28;20430;-85
2021/05/31 09:22:26;;;;;;;2.05;1.38;;;19.40;38.40;;;;;;5007551;28;20165;-83
2021/05/31 09:25:04;;;;;;;3.25;1.50;;;19.40;37.70;;;;;;5005734;28;20081;-82
2021/05/31 09:27:32;;;;;;;3.95;1.50;;;19.60;37.00;;;;;;5008573;28;20046;-83
2021/05/31 09:30:09;;;;;;;4.43;1.65;;;19.60;36.50;;;;;;5007376;28;20533;-83
2021/05/31 09:32:36;;;;;;;1.88;1.42;;;19.30;37.30;;;;;;5007489;28;20137;-81
2021/05/31 09:35:07;;;;;;;4.25;1.75;;;19.50;37.60;;;;;;5008076;28;20449;-80
2021/05/31 09:37:48;;;;;;;4.20;1.60;;;19.70;37.40;;;;;;5017776;28;20573;-81
2021/05/31 09:40:24;;;;;;;3.83;1.60;;;19.70;37.80;;;;;;5004095;28;20085;-82
2021/05/31 09:42:56;;;;;;;3.25;1.65;;;19.80;37.90;;;;;;5009136;28;20132;-82
2021/05/31 09:45:24;;;;;;;1.58;1.33;;;19.80;37.50;;;;;;5008540;28;20140;-81
2021/05/31 09:47:51;;;;;;;3.00;1.70;;;19.70;37.40;;;;;;5010270;28;20072;-82
2021/05/31 09:50:28;;;;;;;3.22;1.70;;;19.70;37.50;;;;;;5012496;28;20050;-80
2021/05/31 09:53:11;;;;;;;2.90;1.70;;;19.90;36.90;;;;;;5008667;28;20062;-78
2021/05/31 09:55:49;;;;;;;2.38;1.42;;;19.80;37.10;;;;;;5005761;28;20078;-84
2021/05/31 09:58:17;;;;;;;2.33;1.63;;;19.90;37.00;;;;;;5009742;28;20397;-80
2021/05/31 10:00:53;;;;;;;3.47;1.48;;;19.80;36.80;;;;;;5007752;28;20782;-81
2021/05/31 10:03:27;;;;;;;2.90;1.40;;;19.60;37.30;;;;;;5009168;28;20060;-80
2021/05/31 10:06:04;;;;;;;2.17;1.70;;;19.90;37.30;;;;;;5037992;28;20117;-80
2021/05/31 10:11:04;;;;;;;2.95;1.48;;;19.90;37.10;;;;;;5007359;28;20048;-80
2021/05/31 10:13:32;;;;;;;3.15;1.35;;;20.20;37.00;;;;;;5007772;28;20434;-78
2021/05/31 10:16:03;;;;;;;6.35;1.30;;;20.50;36.40;;;;;;5007331;28;20137;-74
2021/05/31 10:18:31;;;;;;;3.20;1.50;;;20.30;36.40;;;;;;5005418;28;20128;-77
2021/05/31 10:20:58;;;;;;;2.03;1.73;;;20.30;36.30;;;;;;5007336;28;20121;-77
2021/05/31 10:23:25;;;;;;;4.32;1.45;;;20.20;36.60;;;;;;5021721;28;20149;-72
2021/05/31 10:26:04;;;;;;;2.70;1.77;;;20.20;35.90;;;;;;5003947;28;20046;-76
2021/05/31 10:28:33;;;;;;;3.97;1.50;;;20.20;35.40;;;;;;5005911;28;20409;-75
2021/05/31 10:31:05;;;;;;;2.95;1.63;;;20.30;35.80;;;;;;5004076;28;20188;-75
2021/05/31 10:33:39;;;;;;;3.35;1.65;;;20.50;35.80;;;;;;5007655;28;20109;-75
2021/05/31 10:36:19;;;;;;;4.20;1.52;;;20.20;35.70;;;;;;4996641;28;20516;-76
2021/05/31 10:38:50;;;;;;;2.47;1.50;;;20.20;35.80;;;;;;5003930;28;20053;-70
2021/05/31 10:41:23;;;;;;;2.75;1.48;;;20.40;34.80;;;;;;4992787;28;20133;-70
2021/05/31 10:43:53;;;;;;;3.72;1.45;;;20.40;34.90;;;;;;4998298;28;20058;-71
2021/05/31 10:46:26;;;;;;;;;;;20.40;34.50;;;;;;4984107;28;20078;-70
2021/05/31 10:48:54;;;;;;;2.20;1.23;;;20.50;34.80;;;;;;4988870;28;19930;-71
2021/05/31 10:51:31;;;;;;;3.65;1.80;;;20.40;35.30;;;;;;4990371;28;20509;-70
2021/05/31 10:54:08;;;;;;;2.33;1.48;;;20.50;35.70;;;;;;4989797;28;21851;-73
2021/05/31 10:56:35;;;;;;;3.85;1.75;;;20.40;35.80;;;;;;4988780;28;20161;-73
2021/05/31 10:59:03;;;;;;;2.63;1.63;;;20.40;35.90;;;;;;4988769;28;20078;-74
2021/05/31 11:01:32;;;;;;;5.75;1.70;;;20.50;36.30;;;;;;4989209;28;20160;-73
2021/05/31 11:04:21;;;;;;;3.55;1.85;;;20.50;36.30;;;;;;4989141;28;20088;-74
2021/05/31 11:06:51;;;;;;;5.45;1.70;;;20.50;35.80;;;;;;4988323;28;20165;-73
2021/05/31 11:09:34;;;;;;;1.85;1.55;;;20.60;35.70;;;;;;4988444;28;20042;-72
2021/05/31 11:12:04;;;;;;;3.60;1.65;;;20.60;35.90;;;;;;4991503;28;20202;-73
2021/05/31 11:14:40;;;;;;;2.35;1.98;;;20.60;35.60;;;;;;4989825;28;20054;-75
2021/05/31 11:17:15;;;;;;;4.13;1.60;;;20.60;36.00;;;;;;4990488;28;20073;-75
2021/05/31 11:19:45;;;;;;;3.60;1.60;;;20.90;35.60;;;;;;4993410;28;20054;-74
2021/05/31 11:22:13;;;;;;;2.23;1.70;;;20.80;35.90;;;;;;4992862;28;20140;-74
2021/05/31 11:24:40;;;;;;;1.75;1.60;;;20.80;35.80;;;;;;4993012;28;20404;-73
2021/05/31 11:27:10;;;;;;;2.85;1.70;;;20.90;35.80;;;;;;4993823;28;20060;-74
2021/05/31 11:29:36;;;;;;;1.48;1.35;;;21.00;35.70;;;;;;4992513;28;20145;-73
2021/05/31 11:32:04;;;;;;;2.63;1.77;;;21.00;36.10;;;;;;4991552;28;20116;-73
2021/05/31 11:34:32;;;;;;;2.88;1.83;;;20.90;35.90;;;;;;4992579;28;20056;-73
2021/05/31 11:37:00;;;;;;;5.53;1.98;;;20.80;36.50;;;;;;4992481;28;20136;-72
2021/05/31 11:39:32;;;;;;;3.15;1.65;;;20.90;36.00;;;;;;4992373;28;20409;-74
2021/05/31 11:41:59;;;;;;;3.03;1.60;;;20.80;35.70;;;;;;4994903;28;20469;-82
2021/05/31 11:44:29;;;;;;;5.03;1.70;;;21.00;35.90;;;;;;4993934;28;20145;-75
2021/05/31 11:46:56;;;;;;;;;;;21.20;35.80;;;;;;4993173;28;20795;-73
2021/05/31 11:49:25;;;;;;;3.15;1.60;;;21.10;35.40;;;;;;4994531;28;20021;-74
2021/05/31 11:52:10;;;;;;;5.18;1.80;;;21.20;35.50;;;;;;4992051;28;20137;-75
2021/05/31 11:54:39;;;;;;;2.35;1.63;;;21.20;35.20;;;;;;4993945;28;20100;-69
2021/05/31 11:57:11;;;;;;;2.58;1.67;;;21.50;35.20;;;;;;4990569;28;20144;-73
2021/05/31 11:59:43;;;;;;;2.95;1.70;;;21.50;35.10;;;;;;4993993;28;20440;-72
2021/05/31 12:02:16;;;;;;;5.03;1.60;;;21.50;35.20;;;;;;4992983;28;20050;-80
2021/05/31 12:04:47;;;;;;;5.05;1.80;;;22.10;34.40;;;;;;4990041;28;20054;-73
2021/05/31 12:07:24;;;;;;;3.67;1.85;;;21.90;34.80;;;;;;4992073;28;20565;-75
2021/05/31 12:09:52;;;;;;;2.78;1.70;;;21.90;35.20;;;;;;4989990;28;20053;-73
2021/05/31 12:12:21;;;;;;;2.28;1.60;;;22.30;34.80;;;;;;4990906;28;20077;-73
2021/05/31 12:14:53;;;;;;;1.80;1.60;;;22.80;34.50;;;;;;4990428;28;20128;-74
2021/05/31 12:17:23;;;;;;;3.28;1.67;;;24.00;33.50;;;;;;4992315;28;20070;-74
2021/05/31 12:19:51;;;;;;;4.03;2.13;;;24.90;32.50;;;;;;4992520;28;20057;-74
2021/05/31 12:22:20;;;;;;;3.05;1.60;;;29.10;29.70;;;;;;4990796;28;20317;-74
2021/05/31 12:24:50;;;;;;;4.93;1.40;;;31.80;26.40;;;;;;4993257;28;20737;-73
2021/05/31 12:27:33;;;;;;;4.25;1.52;;;34.00;25.60;;;;;;4992528;28;20117;-73
2021/05/31 12:30:00;;;;;;;2.83;1.70;;;36.20;24.00;;;;;;4991779;28;20184;-74
2021/05/31 12:32:28;;;;;;;2.80;1.58;;;34.30;24.40;;;;;;4991314;28;20369;-74
2021/05/31 12:34:56;;;;;;;7.50;2.20;;;34.90;24.50;;;;;;4993288;28;20073;-73
2021/05/31 12:37:26;;;;;;;4.40;1.80;;;34.90;24.50;;;;;;4992931;28;20058;-76
2021/05/31 12:39:53;;;;;;;2.22;1.50;;;34.90;24.50;;;;;;4989722;28;20180;-76
2021/05/31 12:42:24;;;;;;;3.42;1.70;;;34.10;25.00;;;;;;4991965;28;20199;-74
2021/05/31 12:44:51;;;;;;;6.63;1.50;;;32.70;26.60;;;;;;4989847;28;20081;-75
2021/05/31 12:47:20;;;;;;;5.32;2.05;;;30.80;26.90;;;;;;4989594;28;20074;-76
2021/05/31 12:49:53;;;;;;;2.03;1.48;;;32.30;27.30;;;;;;4988803;28;20413;-76
2021/05/31 12:52:32;;;;;;;8.05;1.60;;;32.30;26.70;;;;;;4989130;28;20065;-76
2021/05/31 12:55:10;;;;;;;2.58;1.23;;;31.80;26.50;;;;;;4990964;28;20053;-72
2021/05/31 12:57:48;;;;;;;5.30;2.20;;;30.50;26.90;;;;;;4993642;28;20135;-75
2021/05/31 13:00:24;;;;;;;5.47;2.23;;;29.60;27.40;;;;;;4992240;28;20136;-71
2021/05/31 13:02:53;;;;;;;4.10;1.60;;;30.00;26.80;;;;;;4992738;28;21105;-73
2021/05/31 13:05:23;;;;;;;1.98;1.70;;;30.10;26.30;;;;;;4990666;28;20129;-73
2021/05/31 13:07:52;;;;;;;2.75;1.52;;;29.20;26.90;;;;;;4994738;28;20132;-74
2021/05/31 13:10:32;;;;;;;5.28;2.22;;;27.70;28.70;;;;;;4989494;28;20053;-75
2021/05/31 13:13:05;;;;;;;5.07;2.05;;;27.50;28.60;;;;;;4994577;28;20133;-73